createdAt,value
2019-05-25T00:00:39.407Z,0.00
2019-05-25T00:01:39.418Z,0.00
2019-05-25T00:02:39.463Z,0.00
2019-05-25T00:03:39.371Z,0.00
2019-05-25T00:04:39.386Z,0.00
2019-05-25T00:05:39.347Z,0.00
2019-05-25T00:06:39.396Z,0.00
2019-05-25T00:07:39.328Z,0.00
2019-05-25T00:08:39.316Z,0.00
2019-05-25T00:09:39.309Z,0.00
2019-05-25T00:10:39.291Z,0.00
2019-05-25T00:11:39.313Z,0.00
2019-05-25T00:12:39.277Z,0.00
2019-05-25T00:13:39.258Z,0.00
2019-05-25T00:14:39.254Z,0.00
2019-05-25T00:15:39.238Z,0.00
2019-05-25T00:16:39.253Z,0.00
2019-05-25T00:17:39.214Z,0.00
2019-05-25T00:18:39.213Z,0.00
2019-05-25T00:19:39.198Z,0.00
2019-05-25T00:20:39.184Z,0.00
2019-05-25T00:21:39.192Z,0.00
2019-05-25T00:22:39.155Z,0.00
2019-05-25T00:23:39.147Z,0.00
2019-05-25T00:24:39.138Z,0.00
2019-05-25T00:25:39.122Z,0.00
2019-05-25T00:26:39.113Z,0.00
2019-05-25T00:27:39.128Z,0.00
2019-05-25T00:28:39.089Z,0.00
2019-05-25T00:29:39.076Z,0.00
2019-05-25T00:30:39.064Z,0.00
2019-05-25T00:31:39.058Z,0.00
2019-05-25T00:32:39.071Z,0.00
2019-05-25T00:33:39.030Z,0.00
2019-05-25T00:34:39.021Z,0.00
2019-05-25T00:35:39.010Z,0.00
2019-05-25T00:36:38.998Z,0.00
2019-05-25T00:37:39.013Z,0.00
2019-05-25T00:38:38.974Z,0.00
2019-05-25T00:39:38.963Z,0.00
2019-05-25T00:40:38.953Z,0.00
2019-05-25T00:41:38.941Z,0.00
2019-05-25T00:42:38.994Z,0.00
2019-05-25T00:43:38.925Z,0.00
2019-05-25T00:44:38.915Z,0.00
2019-05-25T00:45:38.901Z,0.00
2019-05-25T00:46:38.886Z,0.00
2019-05-25T00:47:38.897Z,0.00
2019-05-25T00:48:38.861Z,0.00
2019-05-25T00:49:38.912Z,0.00
2019-05-25T00:50:38.838Z,0.00
2019-05-25T00:51:38.826Z,0.00
2019-05-25T00:52:38.842Z,0.00
2019-05-25T00:53:38.806Z,0.00
2019-05-25T00:54:38.794Z,0.00
2019-05-25T00:55:38.783Z,0.00
2019-05-25T00:56:38.771Z,0.00
2019-05-25T00:57:38.789Z,0.00
2019-05-25T00:58:38.752Z,0.00
2019-05-25T00:59:38.736Z,0.00
2019-05-25T01:00:38.726Z,0.00
2019-05-25T01:01:38.716Z,0.00
2019-05-25T01:02:38.769Z,0.00
2019-05-25T01:03:38.691Z,0.00
2019-05-25T01:04:38.679Z,0.00
2019-05-25T01:05:38.671Z,0.00
2019-05-25T01:06:38.663Z,0.00
2019-05-25T01:07:38.646Z,0.00
2019-05-25T01:08:38.662Z,0.00
2019-05-25T01:09:38.625Z,0.00
2019-05-25T01:10:38.612Z,0.00
2019-05-25T01:11:38.600Z,0.00
2019-05-25T01:12:38.590Z,0.00
2019-05-25T01:13:38.611Z,0.00
2019-05-25T01:14:38.572Z,0.00
2019-05-25T01:15:38.561Z,0.00
2019-05-25T01:16:38.558Z,0.00
2019-05-25T01:17:38.537Z,0.00
2019-05-25T01:18:38.578Z,0.00
2019-05-25T01:19:38.511Z,0.00
2019-05-25T01:20:38.503Z,0.00
2019-05-25T01:21:38.489Z,0.00
2019-05-25T01:22:38.477Z,0.00
2019-05-25T01:23:38.494Z,0.00
2019-05-25T01:24:44.399Z,0.00
2019-05-25T01:25:39.443Z,0.00
2019-05-25T01:26:38.432Z,0.00
2019-05-25T01:27:38.421Z,0.00
2019-05-25T01:28:38.453Z,0.00
2019-05-25T01:29:38.403Z,0.00
2019-05-25T01:30:38.388Z,0.00
2019-05-25T01:31:38.373Z,0.00
2019-05-25T01:32:38.374Z,0.00
2019-05-25T01:33:38.353Z,0.00
2019-05-25T01:34:38.365Z,0.00
2019-05-25T01:35:38.331Z,0.00
2019-05-25T01:36:38.318Z,0.00
2019-05-25T01:37:38.394Z,0.00
2019-05-25T01:38:38.301Z,0.00
2019-05-25T01:39:38.309Z,0.00
2019-05-25T01:40:38.273Z,0.00
2019-05-25T01:41:38.261Z,0.00
2019-05-25T01:42:38.252Z,0.00
2019-05-25T01:43:38.240Z,0.00
2019-05-25T01:44:38.257Z,0.00
2019-05-25T01:45:38.224Z,0.00
2019-05-25T01:46:38.205Z,0.00
2019-05-25T01:47:38.197Z,0.00
2019-05-25T01:48:38.184Z,0.00
2019-05-25T01:49:38.203Z,0.00
2019-05-25T01:50:38.174Z,0.00
2019-05-25T01:51:38.148Z,0.00
2019-05-25T01:52:38.149Z,0.00
2019-05-25T01:53:38.126Z,0.00
2019-05-25T01:54:38.144Z,0.00
2019-05-25T01:55:38.102Z,0.00
2019-05-25T01:56:38.093Z,0.00
2019-05-25T01:57:38.081Z,0.00
2019-05-25T01:58:38.068Z,0.00
2019-05-25T01:59:38.083Z,0.00
2019-05-25T02:00:38.050Z,0.00
2019-05-25T02:01:38.034Z,0.00
2019-05-25T02:02:38.024Z,0.00
2019-05-25T02:03:38.037Z,0.00
2019-05-25T02:04:38.006Z,0.00
2019-05-25T02:05:38.014Z,0.00
2019-05-25T02:06:37.979Z,0.00
2019-05-25T02:07:37.967Z,0.00
2019-05-25T02:08:37.959Z,0.00
2019-05-25T02:09:37.946Z,0.00
2019-05-25T02:10:37.959Z,0.00
2019-05-25T02:11:37.921Z,0.00
2019-05-25T02:12:37.917Z,0.00
2019-05-25T02:13:37.902Z,0.00
2019-05-25T02:14:37.896Z,0.00
2019-05-25T02:15:37.901Z,0.00
2019-05-25T02:16:37.864Z,0.00
2019-05-25T02:17:37.856Z,0.00
2019-05-25T02:18:37.844Z,0.00
2019-05-25T02:19:37.834Z,0.00
2019-05-25T02:20:37.851Z,0.00
2019-05-25T02:21:37.809Z,0.00
2019-05-25T02:22:37.796Z,0.00
2019-05-25T02:23:37.790Z,0.00
2019-05-25T02:24:37.775Z,0.00
2019-05-25T02:25:37.790Z,0.00
2019-05-25T02:26:37.784Z,0.00
2019-05-25T02:27:37.742Z,0.00
2019-05-25T02:28:37.732Z,0.00
2019-05-25T02:29:37.719Z,0.00
2019-05-25T02:30:37.746Z,0.00
2019-05-25T02:31:37.694Z,0.00
2019-05-25T02:32:37.683Z,0.00
2019-05-25T02:33:37.673Z,0.00
2019-05-25T02:34:37.661Z,0.00
2019-05-25T02:35:37.654Z,0.00
2019-05-25T02:36:37.663Z,0.00
2019-05-25T02:37:37.626Z,0.00
2019-05-25T02:38:37.618Z,0.00
2019-05-25T02:39:37.607Z,0.00
2019-05-25T02:40:37.592Z,0.00
2019-05-25T02:41:37.607Z,0.00
2019-05-25T02:42:37.572Z,0.00
2019-05-25T02:43:37.563Z,0.00
2019-05-25T02:44:37.579Z,0.00
2019-05-25T02:45:37.538Z,0.00
2019-05-25T02:46:37.561Z,0.00
2019-05-25T02:47:37.520Z,0.00
2019-05-25T02:48:37.507Z,0.00
2019-05-25T02:49:37.495Z,0.00
2019-05-25T02:50:37.479Z,0.00
2019-05-25T02:51:37.500Z,0.00
2019-05-25T02:52:37.464Z,0.00
2019-05-25T02:53:37.445Z,0.00
2019-05-25T02:54:37.498Z,0.00
2019-05-25T02:55:37.429Z,0.00
2019-05-25T02:56:37.450Z,0.00
2019-05-25T02:57:37.405Z,0.00
2019-05-25T02:58:37.391Z,0.00
2019-05-25T02:59:37.381Z,0.00
2019-05-25T03:00:37.367Z,0.00
2019-05-25T03:01:37.389Z,0.00
2019-05-25T03:02:37.399Z,0.00
2019-05-25T03:03:37.332Z,0.00
2019-05-25T03:04:37.327Z,0.00
2019-05-25T03:05:37.309Z,0.00
2019-05-25T03:06:37.337Z,0.00
2019-05-25T03:07:37.290Z,0.00
2019-05-25T03:08:37.276Z,0.00
2019-05-25T03:09:37.268Z,4.00
2019-05-25T03:10:37.252Z,4.00
2019-05-25T03:11:37.243Z,0.00
2019-05-25T03:12:37.256Z,0.00
2019-05-25T03:13:37.225Z,4.00
2019-05-25T03:14:37.208Z,4.00
2019-05-25T03:15:37.199Z,0.00
2019-05-25T03:16:37.186Z,4.00
2019-05-25T03:17:37.251Z,4.00
2019-05-25T03:18:37.163Z,4.00
2019-05-25T03:19:37.152Z,4.00
2019-05-25T03:20:37.142Z,8.00
2019-05-25T03:21:37.128Z,8.00
2019-05-25T03:22:37.147Z,8.00
2019-05-25T03:23:37.109Z,8.00
2019-05-25T03:24:37.103Z,8.00
2019-05-25T03:25:49.296Z,8.00
2019-05-25T03:26:38.070Z,8.00
2019-05-25T03:27:37.086Z,12.00
2019-05-25T03:28:37.050Z,16.00
2019-05-25T03:29:37.044Z,16.00
2019-05-25T03:30:37.073Z,16.00
2019-05-25T03:31:37.035Z,16.00
2019-05-25T03:32:37.025Z,16.00
2019-05-25T03:33:37.017Z,20.00
2019-05-25T03:34:36.981Z,20.00
2019-05-25T03:35:36.979Z,24.00
2019-05-25T03:36:36.959Z,24.00
2019-05-25T03:37:36.949Z,24.00
2019-05-25T03:38:36.963Z,28.00
2019-05-25T03:39:36.926Z,28.00
2019-05-25T03:40:36.913Z,32.00
2019-05-25T03:41:36.903Z,32.00
2019-05-25T03:42:36.894Z,32.00
2019-05-25T03:43:36.907Z,32.00
2019-05-25T03:44:36.868Z,36.00
2019-05-25T03:45:36.858Z,40.00
2019-05-25T03:46:36.849Z,40.00
2019-05-25T03:47:36.842Z,44.00
2019-05-25T03:48:36.850Z,48.00
2019-05-25T03:49:36.811Z,48.00
2019-05-25T03:50:36.800Z,52.00
2019-05-25T03:51:36.787Z,52.00
2019-05-25T03:52:36.784Z,56.00
2019-05-25T03:53:36.792Z,56.00
2019-05-25T03:54:36.756Z,64.00
2019-05-25T03:55:36.747Z,60.00
2019-05-25T03:56:36.735Z,64.00
2019-05-25T03:57:36.721Z,64.00
2019-05-25T03:58:36.735Z,68.00
2019-05-25T03:59:36.703Z,72.00
2019-05-25T04:00:36.701Z,72.00
2019-05-25T04:01:36.684Z,76.00
2019-05-25T04:02:36.664Z,76.00
2019-05-25T04:03:36.679Z,80.00
2019-05-25T04:04:36.641Z,84.00
2019-05-25T04:05:36.639Z,84.00
2019-05-25T04:06:36.622Z,88.00
2019-05-25T04:07:36.611Z,88.00
2019-05-25T04:08:36.629Z,92.00
2019-05-25T04:09:36.584Z,92.00
2019-05-25T04:10:38.824Z,96.00
2019-05-25T04:11:36.566Z,96.00
2019-05-25T04:12:36.552Z,96.00
2019-05-25T04:13:36.574Z,100.00
2019-05-25T04:14:36.535Z,104.00
2019-05-25T04:15:36.517Z,108.00
2019-05-25T04:16:36.509Z,108.00
2019-05-25T04:17:36.505Z,108.00
2019-05-25T04:18:36.514Z,112.00
2019-05-25T04:19:36.472Z,116.00
2019-05-25T04:20:36.465Z,124.00
2019-05-25T04:21:36.449Z,124.00
2019-05-25T04:22:36.437Z,132.00
2019-05-25T04:23:36.432Z,136.00
2019-05-25T04:24:36.439Z,144.00
2019-05-25T04:25:36.415Z,148.00
2019-05-25T04:26:36.394Z,152.00
2019-05-25T04:27:36.382Z,160.00
2019-05-25T04:28:36.373Z,168.00
2019-05-25T04:29:36.384Z,168.00
2019-05-25T04:30:36.349Z,176.00
2019-05-25T04:31:36.334Z,184.00
2019-05-25T04:32:36.327Z,184.00
2019-05-25T04:33:36.325Z,188.00
2019-05-25T04:34:36.327Z,192.00
2019-05-25T04:35:36.295Z,196.00
2019-05-25T04:36:36.288Z,200.00
2019-05-25T04:37:36.275Z,204.00
2019-05-25T04:38:36.258Z,208.00
2019-05-25T04:39:36.272Z,212.00
2019-05-25T04:40:36.234Z,220.00
2019-05-25T04:41:36.228Z,224.00
2019-05-25T04:42:36.212Z,224.00
2019-05-25T04:43:36.202Z,232.00
2019-05-25T04:44:36.224Z,244.00
2019-05-25T04:45:36.178Z,260.00
2019-05-25T04:46:36.168Z,340.00
2019-05-25T04:47:36.153Z,272.00
2019-05-25T04:48:36.144Z,256.00
2019-05-25T04:49:36.175Z,252.00
2019-05-25T04:50:36.125Z,252.00
2019-05-25T04:51:36.109Z,256.00
2019-05-25T04:52:36.100Z,260.00
2019-05-25T04:53:36.089Z,256.00
2019-05-25T04:54:36.110Z,268.00
2019-05-25T04:55:36.066Z,276.00
2019-05-25T04:56:39.370Z,280.00
2019-05-25T04:57:36.041Z,284.00
2019-05-25T04:58:36.031Z,292.00
2019-05-25T04:59:36.050Z,296.00
2019-05-25T05:00:36.023Z,304.00
2019-05-25T05:01:35.998Z,312.00
2019-05-25T05:02:35.991Z,320.00
2019-05-25T05:03:35.975Z,328.00
2019-05-25T05:04:35.987Z,336.00
2019-05-25T05:05:35.950Z,348.00
2019-05-25T05:06:35.945Z,356.00
2019-05-25T05:07:35.930Z,368.00
2019-05-25T05:08:35.991Z,376.00
2019-05-25T05:09:35.935Z,380.00
2019-05-25T05:10:35.893Z,388.00
2019-05-25T05:11:35.883Z,388.00
2019-05-25T05:12:35.875Z,388.00
2019-05-25T05:13:35.862Z,392.00
2019-05-25T05:14:35.875Z,388.00
2019-05-25T05:15:35.842Z,392.00
2019-05-25T05:16:35.825Z,396.00
2019-05-25T05:17:35.815Z,396.00
2019-05-25T05:18:35.804Z,400.00
2019-05-25T05:19:35.819Z,408.00
2019-05-25T05:20:35.782Z,408.00
2019-05-25T05:21:35.775Z,412.00
2019-05-25T05:22:35.760Z,428.00
2019-05-25T05:23:35.748Z,428.00
2019-05-25T05:24:35.761Z,440.00
2019-05-25T05:25:35.725Z,452.00
2019-05-25T05:26:35.716Z,456.00
2019-05-25T05:27:35.703Z,460.00
2019-05-25T05:28:35.702Z,464.00
2019-05-25T05:29:35.680Z,480.00
2019-05-25T05:30:35.691Z,476.00
2019-05-25T05:31:35.656Z,480.00
2019-05-25T05:32:35.656Z,480.00
2019-05-25T05:33:35.634Z,480.00
2019-05-25T05:34:35.623Z,472.00
2019-05-25T05:35:38.881Z,464.00
2019-05-25T05:36:35.600Z,460.00
2019-05-25T05:37:35.588Z,452.00
2019-05-25T05:38:35.581Z,436.00
2019-05-25T05:39:35.572Z,384.00
2019-05-25T05:40:35.579Z,440.00
2019-05-25T05:41:35.546Z,416.00
2019-05-25T05:42:35.534Z,412.00
2019-05-25T05:43:35.524Z,412.00
2019-05-25T05:44:35.514Z,412.00
2019-05-25T05:45:35.527Z,396.00
2019-05-25T05:46:35.486Z,428.00
2019-05-25T05:47:35.477Z,428.00
2019-05-25T05:48:35.468Z,424.00
2019-05-25T05:49:35.452Z,420.00
2019-05-25T05:50:35.467Z,432.00
2019-05-25T05:51:35.432Z,432.00
2019-05-25T05:52:35.420Z,436.00
2019-05-25T05:53:35.410Z,432.00
2019-05-25T05:54:35.398Z,432.00
2019-05-25T05:55:35.409Z,436.00
2019-05-25T05:56:35.377Z,436.00
2019-05-25T05:57:35.360Z,432.00
2019-05-25T05:58:35.350Z,436.00
2019-05-25T05:59:35.343Z,440.00
2019-05-25T06:00:35.354Z,448.00
2019-05-25T06:01:35.320Z,440.00
2019-05-25T06:02:35.306Z,440.00
2019-05-25T06:03:35.293Z,444.00
2019-05-25T06:04:35.282Z,448.00
2019-05-25T06:05:35.300Z,448.00
2019-05-25T06:06:35.260Z,448.00
2019-05-25T06:07:35.251Z,452.00
2019-05-25T06:08:35.236Z,452.00
2019-05-25T06:09:35.225Z,460.00
2019-05-25T06:10:35.240Z,460.00
2019-05-25T06:11:35.203Z,464.00
2019-05-25T06:12:35.193Z,472.00
2019-05-25T06:13:35.181Z,476.00
2019-05-25T06:14:35.171Z,476.00
2019-05-25T06:15:35.182Z,484.00
2019-05-25T06:16:35.146Z,496.00
2019-05-25T06:17:35.142Z,500.00
2019-05-25T06:18:35.126Z,504.00
2019-05-25T06:19:35.113Z,508.00
2019-05-25T06:20:35.129Z,516.00
2019-05-25T06:21:35.089Z,532.00
2019-05-25T06:22:35.078Z,536.00
2019-05-25T06:23:35.066Z,540.00
2019-05-25T06:24:35.056Z,552.00
2019-05-25T06:25:35.075Z,556.00
2019-05-25T06:26:35.032Z,568.00
2019-05-25T06:27:35.023Z,576.00
2019-05-25T06:28:35.012Z,596.00
2019-05-25T06:29:35.004Z,596.00
2019-05-25T06:30:35.014Z,600.00
2019-05-25T06:31:34.983Z,608.00
2019-05-25T06:32:34.971Z,612.00
2019-05-25T06:33:34.953Z,632.00
2019-05-25T06:34:34.943Z,652.00
2019-05-25T06:35:34.958Z,676.00
2019-05-25T06:36:34.920Z,700.00
2019-05-25T06:37:34.910Z,724.00
2019-05-25T06:38:34.898Z,744.00
2019-05-25T06:39:34.889Z,768.00
2019-05-25T06:40:34.877Z,776.00
2019-05-25T06:41:34.889Z,792.00
2019-05-25T06:42:34.855Z,796.00
2019-05-25T06:43:34.848Z,800.00
2019-05-25T06:44:34.832Z,812.00
2019-05-25T06:45:34.820Z,808.00
2019-05-25T06:46:34.837Z,848.00
2019-05-25T06:47:34.796Z,860.00
2019-05-25T06:48:34.785Z,900.00
2019-05-25T06:49:34.774Z,892.00
2019-05-25T06:50:34.761Z,872.00
2019-05-25T06:51:34.775Z,836.00
2019-05-25T06:52:34.739Z,852.00
2019-05-25T06:53:34.733Z,824.00
2019-05-25T06:54:34.751Z,788.00
2019-05-25T06:55:34.708Z,744.00
2019-05-25T06:56:34.720Z,740.00
2019-05-25T06:57:43.238Z,660.00
2019-05-25T06:58:35.669Z,696.00
2019-05-25T06:59:34.659Z,684.00
2019-05-25T07:00:34.648Z,664.00
2019-05-25T07:01:34.671Z,620.00
2019-05-25T07:02:34.625Z,636.00
2019-05-25T07:03:34.699Z,488.00
2019-05-25T07:04:34.618Z,512.00
2019-05-25T07:05:34.592Z,696.00
2019-05-25T07:06:34.608Z,692.00
2019-05-25T07:07:34.572Z,696.00
2019-05-25T07:08:34.563Z,716.00
2019-05-25T07:09:34.552Z,740.00
2019-05-25T07:10:34.534Z,744.00
2019-05-25T07:11:34.551Z,784.00
2019-05-25T07:12:34.516Z,796.00
2019-05-25T07:13:34.502Z,824.00
2019-05-25T07:14:34.493Z,844.00
2019-05-25T07:15:34.477Z,872.00
2019-05-25T07:16:34.495Z,892.00
2019-05-25T07:17:34.457Z,904.00
2019-05-25T07:18:35.537Z,920.00
2019-05-25T07:19:34.432Z,940.00
2019-05-25T07:20:34.425Z,968.00
2019-05-25T07:21:34.439Z,1008.00
2019-05-25T07:22:34.398Z,1044.00
2019-05-25T07:23:34.394Z,1064.00
2019-05-25T07:24:34.386Z,1140.00
2019-05-25T07:25:34.368Z,1188.00
2019-05-25T07:26:34.393Z,1304.00
2019-05-25T07:27:34.343Z,1372.00
2019-05-25T07:28:34.332Z,1412.00
2019-05-25T07:29:34.330Z,1440.00
2019-05-25T07:30:34.327Z,1464.00
2019-05-25T07:31:34.323Z,1480.00
2019-05-25T07:32:34.290Z,1472.00
2019-05-25T07:33:34.273Z,1440.00
2019-05-25T07:34:34.263Z,1248.00
2019-05-25T07:35:34.257Z,1228.00
2019-05-25T07:36:34.268Z,1384.00
2019-05-25T07:37:34.230Z,1232.00
2019-05-25T07:38:34.227Z,1348.00
2019-05-25T07:39:34.206Z,1236.00
2019-05-25T07:40:34.200Z,1224.00
2019-05-25T07:41:34.208Z,1236.00
2019-05-25T07:42:34.197Z,1176.00
2019-05-25T07:43:34.161Z,1264.00
2019-05-25T07:44:34.149Z,1100.00
2019-05-25T07:45:34.141Z,1252.00
2019-05-25T07:46:34.129Z,1048.00
2019-05-25T07:47:34.148Z,1076.00
2019-05-25T07:48:34.110Z,984.00
2019-05-25T07:49:34.092Z,996.00
2019-05-25T07:50:34.084Z,1016.00
2019-05-25T07:51:34.088Z,1056.00
2019-05-25T07:52:34.088Z,1108.00
2019-05-25T07:53:34.051Z,1144.00
2019-05-25T07:54:34.039Z,1156.00
2019-05-25T07:55:34.030Z,1160.00
2019-05-25T07:56:34.027Z,1236.00
2019-05-25T07:57:34.027Z,1124.00
2019-05-25T07:58:33.993Z,1112.00
2019-05-25T07:59:34.002Z,1120.00
2019-05-25T08:00:33.968Z,1160.00
2019-05-25T08:01:33.956Z,1200.00
2019-05-25T08:02:33.972Z,1092.00
2019-05-25T08:03:33.936Z,1128.00
2019-05-25T08:04:33.932Z,1060.00
2019-05-25T08:05:33.913Z,972.00
2019-05-25T08:06:33.902Z,956.00
2019-05-25T08:07:33.917Z,944.00
2019-05-25T08:08:33.879Z,908.00
2019-05-25T08:09:33.866Z,944.00
2019-05-25T08:10:33.860Z,956.00
2019-05-25T08:11:33.844Z,1128.00
2019-05-25T08:12:33.877Z,1232.00
2019-05-25T08:13:33.821Z,1284.00
2019-05-25T08:14:33.809Z,1276.00
2019-05-25T08:15:33.799Z,1148.00
2019-05-25T08:16:33.789Z,968.00
2019-05-25T08:17:33.783Z,880.00
2019-05-25T08:18:33.788Z,944.00
2019-05-25T08:19:33.761Z,1032.00
2019-05-25T08:20:33.741Z,1080.00
2019-05-25T08:21:33.729Z,1096.00
2019-05-25T08:22:33.726Z,1144.00
2019-05-25T08:23:33.740Z,1208.00
2019-05-25T08:24:33.706Z,1312.00
2019-05-25T08:25:33.684Z,1368.00
2019-05-25T08:26:33.676Z,1344.00
2019-05-25T08:27:33.663Z,1340.00
2019-05-25T08:28:33.681Z,1384.00
2019-05-25T08:29:33.681Z,1540.00
2019-05-25T08:30:33.645Z,1468.00
2019-05-25T08:31:33.620Z,1500.00
2019-05-25T08:32:33.606Z,1340.00
2019-05-25T08:33:33.622Z,1132.00
2019-05-25T08:34:33.582Z,1136.00
2019-05-25T08:35:33.572Z,1184.00
2019-05-25T08:36:33.571Z,1312.00
2019-05-25T08:37:33.553Z,1552.00
2019-05-25T08:38:33.586Z,1552.00
2019-05-25T08:39:33.525Z,1560.00
2019-05-25T08:40:33.519Z,1612.00
2019-05-25T08:41:33.510Z,1468.00
2019-05-25T08:42:33.527Z,1596.00
2019-05-25T08:43:33.505Z,1392.00
2019-05-25T08:44:33.475Z,1268.00
2019-05-25T08:45:33.464Z,1380.00
2019-05-25T08:46:33.446Z,1420.00
2019-05-25T08:47:33.435Z,1328.00
2019-05-25T08:48:33.453Z,1548.00
2019-05-25T08:49:33.422Z,1252.00
2019-05-25T08:50:38.188Z,1220.00
2019-05-25T08:51:34.394Z,1336.00
2019-05-25T08:52:33.379Z,1472.00
2019-05-25T08:53:41.496Z,1552.00
2019-05-25T08:54:34.379Z,1476.00
2019-05-25T08:55:33.344Z,1476.00
2019-05-25T08:56:33.339Z,1672.00
2019-05-25T08:57:33.321Z,1248.00
2019-05-25T08:58:47.553Z,1176.00
2019-05-25T08:59:34.324Z,1324.00
2019-05-25T09:00:33.290Z,1300.00
2019-05-25T09:01:33.280Z,1440.00
2019-05-25T09:02:33.268Z,1640.00
2019-05-25T09:03:33.257Z,1616.00
2019-05-25T09:04:33.270Z,1356.00
2019-05-25T09:05:33.233Z,1320.00
2019-05-25T09:06:33.233Z,1308.00
2019-05-25T09:07:33.211Z,1316.00
2019-05-25T09:08:33.203Z,1368.00
2019-05-25T09:09:33.215Z,1452.00
2019-05-25T09:10:33.185Z,1584.00
2019-05-25T09:11:33.163Z,1904.00
2019-05-25T09:12:33.153Z,1388.00
2019-05-25T09:13:33.143Z,1332.00
2019-05-25T09:14:33.176Z,1292.00
2019-05-25T09:15:33.120Z,1224.00
2019-05-25T09:16:33.111Z,1200.00
2019-05-25T09:17:33.103Z,1308.00
2019-05-25T09:18:33.098Z,1908.00
2019-05-25T09:19:33.107Z,1904.00
2019-05-25T09:20:33.061Z,1900.00
2019-05-25T09:21:33.070Z,1880.00
2019-05-25T09:22:33.046Z,2080.00
2019-05-25T09:23:33.028Z,2244.00
2019-05-25T09:24:33.073Z,1500.00
2019-05-25T09:25:33.008Z,1356.00
2019-05-25T09:26:33.001Z,1760.00
2019-05-25T09:27:32.983Z,1196.00
2019-05-25T09:28:32.973Z,2184.00
2019-05-25T09:29:32.986Z,2164.00
2019-05-25T09:30:32.949Z,2304.00
2019-05-25T09:31:32.944Z,1852.00
2019-05-25T09:32:32.927Z,2280.00
2019-05-25T09:33:32.926Z,2376.00
2019-05-25T09:34:32.936Z,2124.00
2019-05-25T09:35:32.905Z,1844.00
2019-05-25T09:36:32.896Z,2484.00
2019-05-25T09:37:32.870Z,2604.00
2019-05-25T09:38:32.863Z,2584.00
2019-05-25T09:39:32.876Z,2720.00
2019-05-25T09:40:32.836Z,2736.00
2019-05-25T09:41:32.825Z,2748.00
2019-05-25T09:42:32.820Z,2684.00
2019-05-25T09:43:33.980Z,1888.00
2019-05-25T09:44:32.819Z,1324.00
2019-05-25T09:45:32.784Z,1516.00
2019-05-25T09:46:32.769Z,2536.00
2019-05-25T09:47:32.759Z,2624.00
2019-05-25T09:48:32.746Z,2648.00
2019-05-25T09:49:32.739Z,2732.00
2019-05-25T09:50:32.752Z,2800.00
2019-05-25T09:51:32.711Z,2920.00
2019-05-25T09:52:32.702Z,2920.00
2019-05-25T09:53:32.694Z,2972.00
2019-05-25T09:54:32.716Z,3016.00
2019-05-25T09:55:32.693Z,3040.00
2019-05-25T09:56:32.656Z,3108.00
2019-05-25T09:57:32.646Z,3216.00
2019-05-25T09:58:32.637Z,3316.00
2019-05-25T09:59:32.620Z,3332.00
2019-05-25T10:00:32.642Z,3372.00
2019-05-25T10:01:32.613Z,3432.00
2019-05-25T10:02:32.590Z,3444.00
2019-05-25T10:03:32.579Z,3356.00
2019-05-25T10:04:32.565Z,2920.00
2019-05-25T10:05:32.582Z,2668.00
2019-05-25T10:06:32.551Z,3528.00
2019-05-25T10:07:32.532Z,3520.00
2019-05-25T10:08:32.522Z,3628.00
2019-05-25T10:09:32.508Z,3648.00
2019-05-25T10:10:32.524Z,3832.00
2019-05-25T10:11:32.489Z,4024.00
2019-05-25T10:12:32.475Z,3980.00
2019-05-25T10:13:32.471Z,3824.00
2019-05-25T10:14:32.455Z,4024.00
2019-05-25T10:15:32.466Z,4168.00
2019-05-25T10:16:32.431Z,4176.00
2019-05-25T10:17:32.426Z,3960.00
2019-05-25T10:18:32.412Z,4144.00
2019-05-25T10:19:32.398Z,3764.00
2019-05-25T10:20:32.419Z,3800.00
2019-05-25T10:21:32.373Z,3536.00
2019-05-25T10:22:32.368Z,3384.00
2019-05-25T10:23:32.352Z,3772.00
2019-05-25T10:24:32.346Z,4156.00
2019-05-25T10:25:32.338Z,3904.00
2019-05-25T10:26:32.348Z,3264.00
2019-05-25T10:27:34.332Z,3824.00
2019-05-25T10:28:32.295Z,2488.00
2019-05-25T10:29:37.027Z,2488.00
2019-05-25T10:30:33.274Z,3548.00
2019-05-25T10:31:32.312Z,3864.00
2019-05-25T10:32:32.250Z,2320.00
2019-05-25T10:33:32.357Z,2108.00
2019-05-25T10:34:32.227Z,3596.00
2019-05-25T10:35:32.224Z,4148.00
2019-05-25T10:36:32.227Z,3432.00
2019-05-25T10:37:32.194Z,3508.00
2019-05-25T10:38:32.183Z,3928.00
2019-05-25T10:39:32.175Z,4304.00
2019-05-25T10:40:32.157Z,4060.00
2019-05-25T10:41:32.170Z,4360.00
2019-05-25T10:42:32.140Z,4564.00
2019-05-25T10:43:32.129Z,4928.00
2019-05-25T10:44:32.113Z,5056.00
2019-05-25T10:45:32.101Z,5116.00
2019-05-25T10:46:32.138Z,5492.00
2019-05-25T10:47:32.080Z,5568.00
2019-05-25T10:48:32.071Z,5520.00
2019-05-25T10:49:32.057Z,5236.00
2019-05-25T10:50:32.045Z,5144.00
2019-05-25T10:51:32.064Z,5256.00
2019-05-25T10:52:32.029Z,5496.00
2019-05-25T10:53:32.020Z,4556.00
2019-05-25T10:54:32.001Z,4296.00
2019-05-25T10:55:31.992Z,5228.00
2019-05-25T10:56:32.009Z,5712.00
2019-05-25T10:57:31.974Z,5844.00
2019-05-25T10:58:31.954Z,5356.00
2019-05-25T10:59:31.943Z,5164.00
2019-05-25T11:00:31.939Z,4888.00
2019-05-25T11:01:31.927Z,4508.00
2019-05-25T11:02:31.943Z,4880.00
2019-05-25T11:03:31.898Z,4944.00
2019-05-25T11:04:31.891Z,4860.00
2019-05-25T11:05:31.876Z,5232.00
2019-05-25T11:06:34.806Z,5136.00
2019-05-25T11:07:31.887Z,5672.00
2019-05-25T11:08:31.863Z,6264.00
2019-05-25T11:09:31.835Z,6080.00
2019-05-25T11:10:31.825Z,5996.00
2019-05-25T11:11:31.810Z,5508.00
2019-05-25T11:12:31.823Z,5660.00
2019-05-25T11:13:31.790Z,5596.00
2019-05-25T11:14:31.781Z,5896.00
2019-05-25T11:15:31.764Z,5920.00
2019-05-25T11:16:31.757Z,6236.00
2019-05-25T11:17:31.776Z,6140.00
2019-05-25T11:18:31.737Z,6092.00
2019-05-25T11:19:31.720Z,5624.00
2019-05-25T11:20:31.708Z,5744.00
2019-05-25T11:21:31.703Z,5684.00
2019-05-25T11:22:31.716Z,6752.00
2019-05-25T11:23:31.679Z,6668.00
2019-05-25T11:24:31.663Z,6772.00
2019-05-25T11:25:31.722Z,6740.00
2019-05-25T11:26:31.638Z,6900.00
2019-05-25T11:27:31.652Z,7040.00
2019-05-25T11:28:31.621Z,6904.00
2019-05-25T11:29:31.615Z,6300.00
2019-05-25T11:30:31.594Z,6272.00
2019-05-25T11:31:31.613Z,6096.00
2019-05-25T11:32:31.573Z,6336.00
2019-05-25T11:33:31.585Z,6316.00
2019-05-25T11:34:31.550Z,6396.00
2019-05-25T11:35:31.539Z,6892.00
2019-05-25T11:36:31.538Z,6604.00
2019-05-25T11:37:31.516Z,6748.00
2019-05-25T11:38:31.548Z,7024.00
2019-05-25T11:39:31.503Z,6980.00
2019-05-25T11:40:31.482Z,7236.00
2019-05-25T11:41:31.473Z,7672.00
2019-05-25T11:42:31.498Z,7304.00
2019-05-25T11:43:31.472Z,7236.00
2019-05-25T11:44:31.439Z,6452.00
2019-05-25T11:45:31.425Z,6724.00
2019-05-25T11:46:31.420Z,7072.00
2019-05-25T11:47:31.429Z,6436.00
2019-05-25T11:48:31.424Z,6512.00
2019-05-25T11:49:31.386Z,4628.00
2019-05-25T11:50:31.376Z,3940.00
2019-05-25T11:51:31.364Z,6312.00
2019-05-25T11:52:31.353Z,6088.00
2019-05-25T11:53:31.359Z,5932.00
2019-05-25T11:54:31.332Z,6512.00
2019-05-25T11:55:31.313Z,6408.00
2019-05-25T11:56:31.302Z,6912.00
2019-05-25T11:57:31.295Z,7040.00
2019-05-25T11:58:39.101Z,7068.00
2019-05-25T11:59:32.269Z,6840.00
2019-05-25T12:00:31.258Z,7068.00
2019-05-25T12:01:31.255Z,7432.00
2019-05-25T12:02:31.267Z,7004.00
2019-05-25T12:03:31.268Z,7476.00
2019-05-25T12:04:31.221Z,7260.00
2019-05-25T12:05:31.203Z,7356.00
2019-05-25T12:06:31.193Z,7428.00
2019-05-25T12:07:31.186Z,7416.00
2019-05-25T12:08:31.195Z,7392.00
2019-05-25T12:09:31.168Z,7252.00
2019-05-25T12:10:31.149Z,7352.00
2019-05-25T12:11:31.137Z,7260.00
2019-05-25T12:12:31.122Z,7200.00
2019-05-25T12:13:32.198Z,7188.00
2019-05-25T12:14:31.102Z,7364.00
2019-05-25T12:15:31.089Z,7156.00
2019-05-25T12:16:31.079Z,7296.00
2019-05-25T12:17:31.068Z,7208.00
2019-05-25T12:18:31.090Z,7348.00
2019-05-25T12:19:31.047Z,7140.00
2019-05-25T12:20:31.035Z,7340.00
2019-05-25T12:21:31.021Z,7428.00
2019-05-25T12:22:31.013Z,7472.00
2019-05-25T12:23:31.025Z,6616.00
2019-05-25T12:24:31.005Z,6856.00
2019-05-25T12:25:30.979Z,7448.00
2019-05-25T12:26:30.966Z,7304.00
2019-05-25T12:27:30.959Z,7252.00
2019-05-25T12:28:30.983Z,7276.00
2019-05-25T12:29:30.937Z,7004.00
2019-05-25T12:30:40.233Z,6868.00
2019-05-25T12:31:31.912Z,6752.00
2019-05-25T12:32:30.900Z,6092.00
2019-05-25T12:33:30.887Z,7200.00